Time;durP1;ratioP1;P1;durP2;ratioP2;P2;SDS_P1;SDS_P2;PMS_P1;PMS_P2;Temp;Humidity;BMP_temperature;BMP_pressure;BME280_temperature;BME280_humidity;BME280_pressure;Samples;Min_cycle;Max_cycle;Signal;HPM_P1;HPM_P2
2020/12/22 00:01:19;;;;;;;4.22;3.65;;;9.70;99.90;;;;;;5073076;28;20653;-85
2020/12/22 00:03:45;;;;;;;3.40;2.93;;;9.70;99.90;;;;;;5073108;28;20235;-85
2020/12/22 00:06:12;;;;;;;2.83;2.57;;;9.60;99.90;;;;;;5076942;28;20630;-85
2020/12/22 00:08:39;;;;;;;3.60;3.20;;;9.60;99.90;;;;;;5073041;28;20645;-84
2020/12/22 00:11:07;;;;;;;2.90;2.50;;;9.50;99.90;;;;;;5078911;28;20628;-85
2020/12/22 00:13:33;;;;;;;3.70;3.40;;;9.40;99.90;;;;;;5081563;28;20648;-84
2020/12/22 00:15:59;;;;;;;2.80;2.60;;;9.40;99.90;;;;;;5073687;28;21156;-84
2020/12/22 00:18:26;;;;;;;2.40;2.20;;;9.40;99.90;;;;;;5081369;28;20604;-84
2020/12/22 00:20:52;;;;;;;4.70;3.55;;;9.40;99.90;;;;;;5091260;28;20621;-85
2020/12/22 00:23:18;;;;;;;4.57;2.87;;;9.40;99.90;;;;;;5078137;28;20273;-85
2020/12/22 00:25:46;;;;;;;4.03;2.85;;;9.50;99.90;;;;;;5072421;28;21035;-85
2020/12/22 00:28:14;;;;;;;3.20;2.90;;;9.50;99.90;;;;;;5084333;28;20229;-84
2020/12/22 00:30:41;;;;;;;2.97;2.60;;;9.40;99.90;;;;;;5066011;28;20619;-85
2020/12/22 00:33:08;;;;;;;3.10;2.67;;;9.50;99.90;;;;;;5091888;28;21252;-84
2020/12/22 00:35:34;;;;;;;3.53;2.55;;;9.60;99.90;;;;;;5078102;28;20601;-85
2020/12/22 00:38:01;;;;;;;3.97;2.73;;;9.60;99.90;;;;;;5072427;28;20206;-85
2020/12/22 00:40:28;;;;;;;3.30;3.00;;;9.70;99.90;;;;;;5073419;28;20687;-84
2020/12/22 00:42:55;;;;;;;2.40;2.20;;;9.80;99.90;;;;;;5073426;28;21035;-84
2020/12/22 00:45:22;;;;;;;2.63;2.43;;;9.90;99.90;;;;;;5076740;28;20629;-85
2020/12/22 00:47:49;;;;;;;3.30;2.87;;;9.80;99.90;;;;;;5072233;28;20639;-84
2020/12/22 00:50:15;;;;;;;2.95;2.65;;;9.80;99.90;;;;;;5080399;28;20625;-85
2020/12/22 00:52:42;;;;;;;2.50;2.30;;;9.90;99.90;;;;;;5072760;28;20245;-85
2020/12/22 00:55:08;;;;;;;2.97;2.67;;;9.90;99.90;;;;;;5074102;28;20661;-84
2020/12/22 00:57:34;;;;;;;2.17;1.97;;;9.90;99.90;;;;;;5080429;28;21189;-84
2020/12/22 01:00:01;;;;;;;2.70;2.50;;;10.10;99.90;;;;;;5079583;28;20613;-85
2020/12/22 01:02:28;;;;;;;2.20;1.90;;;10.20;99.90;;;;;;5072334;28;20651;-84
2020/12/22 01:04:55;;;;;;;2.03;1.90;;;10.10;99.90;;;;;;5078344;28;20636;-84
2020/12/22 01:07:21;;;;;;;2.03;1.93;;;10.00;99.90;;;;;;5081047;28;20652;-84
2020/12/22 01:09:47;;;;;;;1.70;1.60;;;10.20;99.90;;;;;;5078646;28;20633;-84
2020/12/22 01:12:14;;;;;;;1.93;1.70;;;10.30;99.90;;;;;;5091764;28;20664;-84
2020/12/22 01:14:40;;;;;;;1.70;1.60;;;10.40;99.90;;;;;;5083181;28;20612;-84
2020/12/22 01:17:07;;;;;;;1.63;1.53;;;10.40;99.90;;;;;;5084266;28;20614;-84
2020/12/22 01:19:34;;;;;;;1.63;1.43;;;10.30;99.90;;;;;;5079431;28;20632;-84
2020/12/22 01:22:00;;;;;;;1.50;1.40;;;10.40;99.90;;;;;;5074359;28;20625;-84
2020/12/22 01:24:27;;;;;;;2.57;2.37;;;10.50;99.90;;;;;;5075335;28;20629;-83
2020/12/22 01:26:53;;;;;;;2.10;1.63;;;10.50;99.90;;;;;;5079084;28;21174;-84
2020/12/22 01:29:20;;;;;;;1.83;1.73;;;10.40;99.90;;;;;;5072831;28;20636;-83
2020/12/22 01:31:48;;;;;;;1.60;1.50;;;10.50;99.90;;;;;;5071123;28;20626;-83
2020/12/22 01:34:22;;;;;;;1.50;1.40;;;10.50;99.90;;;;;;5070438;28;20662;-83
2020/12/22 01:36:57;;;;;;;1.73;1.53;;;10.50;99.90;;;;;;5078078;28;21169;-84
2020/12/22 01:39:24;;;;;;;1.90;1.70;;;10.60;99.90;;;;;;5077205;28;20633;-84
2020/12/22 01:41:50;;;;;;;1.40;1.03;;;10.60;99.90;;;;;;5087057;28;20679;-84
2020/12/22 01:44:17;;;;;;;1.50;1.40;;;10.60;99.90;;;;;;5079198;28;20625;-83
2020/12/22 01:46:46;;;;;;;1.60;1.50;;;10.70;99.90;;;;;;5075610;28;20680;-83
2020/12/22 01:49:17;;;;;;;2.07;1.87;;;10.70;99.90;;;;;;5085302;28;20624;-83
2020/12/22 01:51:44;;;;;;;1.33;1.23;;;10.60;99.90;;;;;;5072507;28;20653;-83
2020/12/22 01:54:13;;;;;;;2.30;1.20;;;10.70;99.90;;;;;;5063355;28;20987;-82
2020/12/22 01:56:40;;;;;;;1.67;1.30;;;10.70;99.90;;;;;;5069021;28;20629;-83
2020/12/22 01:59:24;;;;;;;3.77;1.40;;;10.50;99.90;;;;;;5072841;28;20641;-83
2020/12/22 02:02:11;;;;;;;1.50;1.10;;;10.50;99.90;;;;;;5148397;27;20731;-81
2020/12/22 02:04:58;;;;;;;0.90;0.90;;;10.50;99.90;;;;;;5146906;27;20644;-82
2020/12/22 02:07:43;;;;;;;0.90;0.77;;;10.60;99.90;;;;;;5143707;27;20626;-81
2020/12/22 02:10:15;;;;;;;1.40;1.00;;;10.50;99.90;;;;;;5145401;27;20630;-81
2020/12/22 02:12:44;;;;;;;0.50;0.40;;;10.50;99.90;;;;;;5147912;27;20675;-81
2020/12/22 02:15:16;;;;;;;0.40;0.40;;;10.60;99.90;;;;;;5147868;27;20633;-81
2020/12/22 02:17:47;;;;;;;0.83;0.83;;;10.60;99.90;;;;;;5148860;27;20670;-81
2020/12/22 02:20:18;;;;;;;0.50;0.50;;;10.60;99.90;;;;;;5148233;27;20650;-81
2020/12/22 02:22:48;;;;;;;0.50;0.50;;;10.60;99.90;;;;;;5149030;27;21198;-82
2020/12/22 02:25:18;;;;;;;0.50;0.40;;;10.60;99.90;;;;;;5136616;27;20618;-81
2020/12/22 02:27:48;;;;;;;0.77;0.60;;;10.50;99.90;;;;;;5146231;27;20630;-81
2020/12/22 02:30:17;;;;;;;0.50;0.50;;;10.50;99.90;;;;;;5143202;27;21312;-82
2020/12/22 02:32:45;;;;;;;1.37;0.47;;;10.50;99.90;;;;;;5146927;27;21182;-81
2020/12/22 02:35:15;;;;;;;0.50;0.50;;;10.50;99.90;;;;;;5143890;27;20634;-81
2020/12/22 02:37:48;;;;;;;0.50;0.33;;;10.60;99.90;;;;;;5143724;27;20626;-82
2020/12/22 02:40:24;;;;;;;0.40;0.33;;;10.60;99.90;;;;;;5146249;27;20777;-81
2020/12/22 02:42:55;;;;;;;0.40;0.40;;;10.50;99.90;;;;;;5144364;27;20623;-82
2020/12/22 02:45:26;;;;;;;0.50;0.50;;;10.70;99.90;;;;;;5145445;27;20621;-82
2020/12/22 02:47:55;;;;;;;0.40;0.33;;;10.60;99.90;;;;;;5143704;27;21045;-82
2020/12/22 02:50:24;;;;;;;0.40;0.40;;;10.70;99.90;;;;;;5147351;27;20626;-81
2020/12/22 02:52:58;;;;;;;0.40;0.27;;;10.70;99.90;;;;;;5147841;27;21197;-81
2020/12/22 02:55:28;;;;;;;0.57;0.30;;;10.70;99.90;;;;;;5147457;27;20629;-81
2020/12/22 02:57:58;;;;;;;2.20;0.77;;;10.60;99.90;;;;;;5144445;27;20632;-81
2020/12/22 03:00:29;;;;;;;0.40;0.30;;;10.70;99.90;;;;;;5147617;27;20654;-81
2020/12/22 03:03:01;;;;;;;1.07;0.60;;;10.70;99.90;;;;;;5146676;27;20984;-81
2020/12/22 03:05:30;;;;;;;0.40;0.30;;;10.80;99.90;;;;;;5146737;27;20762;-81
2020/12/22 03:08:00;;;;;;;1.03;0.50;;;10.80;99.90;;;;;;5146805;27;20624;-81
2020/12/22 03:10:31;;;;;;;3.70;0.47;;;10.70;99.90;;;;;;5147192;27;20985;-81
2020/12/22 03:13:01;;;;;;;0.50;0.50;;;10.80;99.90;;;;;;5136710;27;20989;-81
2020/12/22 03:15:29;;;;;;;0.70;0.50;;;10.80;99.90;;;;;;5132401;27;20646;-81
2020/12/22 03:18:04;;;;;;;0.83;0.60;;;10.90;99.90;;;;;;5134130;27;20614;-81
2020/12/22 03:20:36;;;;;;;0.60;0.40;;;10.90;99.90;;;;;;5113217;28;20626;-82
2020/12/22 03:23:07;;;;;;;0.60;0.40;;;10.80;99.90;;;;;;5132715;27;20630;-82
2020/12/22 03:25:35;;;;;;;1.17;0.80;;;10.80;99.90;;;;;;5132741;27;20644;-82
2020/12/22 03:28:06;;;;;;;0.60;0.50;;;10.80;99.90;;;;;;5133300;27;20615;-81
2020/12/22 03:30:35;;;;;;;0.60;0.37;;;10.80;99.90;;;;;;5133680;27;20981;-82
2020/12/22 03:33:08;;;;;;;0.40;0.40;;;10.80;99.90;;;;;;5133428;27;20675;-81
2020/12/22 03:35:37;;;;;;;2.07;0.33;;;11.00;99.90;;;;;;5132909;27;20619;-82
2020/12/22 03:38:07;;;;;;;0.40;0.40;;;10.90;99.90;;;;;;5132836;27;21194;-81
2020/12/22 03:40:38;;;;;;;0.40;0.40;;;10.80;99.90;;;;;;5133307;27;20646;-82
2020/12/22 03:43:07;;;;;;;0.30;0.30;;;10.90;99.90;;;;;;5132952;27;21224;-81
2020/12/22 03:45:46;;;;;;;0.50;0.37;;;10.90;99.90;;;;;;5132428;27;20631;-81
2020/12/22 03:48:21;;;;;;;0.40;0.30;;;10.80;99.90;;;;;;5133233;27;20624;-81
2020/12/22 03:50:54;;;;;;;0.50;0.50;;;10.90;99.90;;;;;;5132861;27;20634;-81
2020/12/22 03:53:26;;;;;;;0.40;0.37;;;10.90;99.90;;;;;;5133177;27;20661;-82
2020/12/22 03:56:01;;;;;;;0.70;0.30;;;10.90;99.90;;;;;;5132741;27;20623;-82
2020/12/22 03:58:31;;;;;;;0.50;0.50;;;11.00;99.90;;;;;;5133011;27;20646;-81
2020/12/22 04:01:05;;;;;;;0.40;0.30;;;11.10;99.90;;;;;;5132563;27;20645;-81
2020/12/22 04:03:46;;;;;;;0.57;0.40;;;11.00;99.90;;;;;;5132307;27;20739;-81
2020/12/22 04:06:19;;;;;;;0.50;0.40;;;11.00;99.90;;;;;;5131793;27;20619;-81
2020/12/22 04:08:54;;;;;;;0.60;0.40;;;11.00;99.90;;;;;;5116975;27;20628;-81
2020/12/22 04:11:22;;;;;;;0.60;0.50;;;11.10;99.90;;;;;;5132659;27;20618;-81
2020/12/22 04:13:52;;;;;;;0.60;0.27;;;11.00;99.90;;;;;;5131274;27;20631;-81
2020/12/22 04:16:20;;;;;;;0.70;0.47;;;11.10;99.90;;;;;;5132415;27;20611;-81
2020/12/22 04:18:48;;;;;;;0.40;0.33;;;11.20;99.90;;;;;;5132652;27;20631;-81
2020/12/22 04:21:15;;;;;;;0.50;0.50;;;11.10;99.90;;;;;;5132287;27;21052;-81
2020/12/22 04:23:41;;;;;;;0.60;0.30;;;11.10;99.90;;;;;;5130423;27;21211;-81
2020/12/22 04:26:08;;;;;;;0.30;0.30;;;11.10;99.90;;;;;;5131576;27;20623;-81
2020/12/22 04:28:35;;;;;;;0.73;0.40;;;11.10;99.90;;;;;;5132188;27;20603;-81
2020/12/22 04:31:02;;;;;;;0.80;0.30;;;11.10;99.90;;;;;;5132062;27;20623;-82
2020/12/22 04:33:28;;;;;;;0.87;0.60;;;11.10;99.90;;;;;;5131724;27;21068;-81
2020/12/22 04:35:55;;;;;;;0.90;0.30;;;11.20;99.90;;;;;;5132143;27;20663;-82
2020/12/22 04:38:21;;;;;;;0.60;0.50;;;11.20;99.90;;;;;;5133272;27;21191;-82
2020/12/22 04:40:48;;;;;;;0.30;0.30;;;11.20;99.90;;;;;;5152350;27;20656;-81
2020/12/22 04:43:16;;;;;;;0.80;0.50;;;11.10;99.90;;;;;;5145038;27;21018;-81
2020/12/22 04:45:43;;;;;;;0.47;0.30;;;11.00;99.90;;;;;;5131785;27;20698;-82
2020/12/22 04:48:12;;;;;;;0.70;0.30;;;11.10;99.90;;;;;;5132133;27;20627;-82
2020/12/22 04:50:42;;;;;;;2.43;0.60;;;11.10;99.90;;;;;;5131754;27;21166;-81
2020/12/22 04:53:09;;;;;;;0.40;0.37;;;11.30;99.90;;;;;;5131189;27;20626;-81
2020/12/22 04:55:36;;;;;;;0.40;0.30;;;11.20;99.90;;;;;;5130579;27;21151;-82
2020/12/22 04:58:02;;;;;;;0.40;0.30;;;11.20;99.90;;;;;;5131413;27;20638;-82
2020/12/22 05:00:29;;;;;;;0.40;0.30;;;11.20;99.90;;;;;;5130696;27;20734;-82
2020/12/22 05:02:58;;;;;;;0.70;0.60;;;11.30;99.90;;;;;;5131826;27;20610;-82
2020/12/22 05:05:24;;;;;;;0.40;0.30;;;11.40;99.90;;;;;;5124492;27;20616;-82
2020/12/22 05:07:51;;;;;;;0.47;0.47;;;11.40;99.90;;;;;;5130711;27;21186;-83
2020/12/22 05:10:17;;;;;;;0.40;0.40;;;11.50;99.90;;;;;;5130355;27;20756;-82
2020/12/22 05:12:44;;;;;;;0.47;0.30;;;11.40;99.90;;;;;;5131778;27;20610;-82
2020/12/22 05:15:11;;;;;;;0.77;0.57;;;11.40;99.90;;;;;;5130388;27;20615;-82
2020/12/22 05:17:42;;;;;;;0.50;0.50;;;11.30;99.90;;;;;;5131289;27;20623;-82
2020/12/22 05:20:13;;;;;;;0.40;0.20;;;11.20;99.90;;;;;;5131206;27;21024;-82
2020/12/22 05:22:39;;;;;;;0.50;0.40;;;11.20;99.90;;;;;;5131288;27;20615;-82
2020/12/22 05:25:06;;;;;;;0.50;0.40;;;11.30;99.90;;;;;;5128369;27;20615;-82
2020/12/22 05:27:33;;;;;;;1.83;0.40;;;11.30;99.90;;;;;;5131378;27;20614;-82
2020/12/22 05:30:00;;;;;;;0.50;0.40;;;11.20;99.90;;;;;;5130557;27;20643;-82
2020/12/22 05:32:27;;;;;;;0.80;0.40;;;11.30;99.90;;;;;;5131298;27;20660;-82
2020/12/22 05:34:55;;;;;;;0.50;0.50;;;11.20;99.90;;;;;;5130055;27;20619;-82
2020/12/22 05:37:24;;;;;;;0.60;0.43;;;11.30;99.90;;;;;;5130933;27;20630;-82
2020/12/22 05:39:51;;;;;;;0.40;0.30;;;11.20;99.90;;;;;;5130664;27;20606;-82
2020/12/22 05:42:19;;;;;;;0.40;0.40;;;11.30;99.90;;;;;;5131065;27;20698;-82
2020/12/22 05:44:49;;;;;;;0.40;0.30;;;11.30;99.90;;;;;;5130556;27;20661;-82
2020/12/22 05:47:17;;;;;;;0.40;0.37;;;11.30;99.90;;;;;;5131053;27;20595;-82
2020/12/22 05:49:54;;;;;;;2.47;0.60;;;11.20;99.90;;;;;;5130317;27;20662;-82
2020/12/22 05:52:22;;;;;;;0.57;0.57;;;11.20;99.90;;;;;;5131120;27;20618;-82
2020/12/22 05:54:53;;;;;;;0.77;0.43;;;11.30;99.90;;;;;;5129843;27;20623;-82
2020/12/22 05:57:20;;;;;;;0.53;0.40;;;11.20;99.90;;;;;;5130861;27;20615;-82
2020/12/22 05:59:47;;;;;;;0.70;0.50;;;11.20;99.90;;;;;;5130199;28;20615;-81
2020/12/22 06:02:24;;;;;;;0.50;0.23;;;11.20;99.90;;;;;;5130205;27;20667;-82
2020/12/22 06:04:52;;;;;;;0.70;0.50;;;11.40;99.90;;;;;;5130297;28;20662;-82
2020/12/22 06:07:20;;;;;;;0.43;0.40;;;11.30;99.90;;;;;;5130894;27;20622;-82
2020/12/22 06:09:46;;;;;;;0.47;0.37;;;11.50;99.90;;;;;;5130365;27;20655;-82
2020/12/22 06:12:13;;;;;;;0.50;0.40;;;11.60;99.90;;;;;;5130106;28;21060;-82
2020/12/22 06:14:43;;;;;;;0.70;0.40;;;11.60;99.90;;;;;;5129366;27;20703;-82
2020/12/22 06:17:11;;;;;;;1.80;0.40;;;11.60;99.90;;;;;;5130737;27;21221;-82
2020/12/22 06:19:38;;;;;;;0.40;0.30;;;11.60;99.90;;;;;;5129492;27;20629;-84
2020/12/22 06:22:05;;;;;;;0.30;0.30;;;11.60;99.90;;;;;;5128932;28;20687;-84
2020/12/22 06:24:33;;;;;;;1.03;0.40;;;11.70;99.90;;;;;;5129081;28;21504;-84
2020/12/22 06:27:00;;;;;;;0.40;0.30;;;11.70;99.90;;;;;;5129299;28;20622;-83
2020/12/22 06:29:27;;;;;;;0.37;0.37;;;11.60;99.90;;;;;;5126749;27;20709;-83
2020/12/22 06:31:53;;;;;;;0.80;0.40;;;11.60;99.90;;;;;;5129497;27;20760;-81
2020/12/22 06:34:26;;;;;;;0.80;0.60;;;11.70;99.90;;;;;;5128417;28;20700;-81
2020/12/22 06:37:00;;;;;;;0.40;0.40;;;11.80;99.90;;;;;;5126794;28;20696;-81
2020/12/22 06:39:41;;;;;;;0.70;0.40;;;11.80;99.90;;;;;;5126483;28;20657;-81
2020/12/22 06:42:08;;;;;;;0.50;0.50;;;11.60;99.90;;;;;;5131074;27;20666;-82
2020/12/22 06:44:35;;;;;;;6.00;0.60;;;11.70;99.90;;;;;;5130193;27;20714;-82
2020/12/22 06:47:04;;;;;;;0.40;0.40;;;11.70;99.90;;;;;;5131143;27;20644;-82
2020/12/22 06:49:50;;;;;;;0.47;0.40;;;11.70;99.90;;;;;;5125867;27;20630;-82
2020/12/22 06:52:33;;;;;;;0.77;0.63;;;11.60;99.90;;;;;;5128391;27;20654;-82
2020/12/22 06:55:02;;;;;;;0.50;0.40;;;11.70;99.90;;;;;;5133511;27;20637;-82
2020/12/22 06:57:46;;;;;;;0.80;0.53;;;11.70;99.90;;;;;;5133946;27;21026;-82
2020/12/22 07:00:37;;;;;;;0.60;0.57;;;11.80;99.90;;;;;;5128578;27;21030;-82
2020/12/22 07:03:12;;;;;;;1.53;0.50;;;11.80;99.90;;;;;;5130068;27;20610;-82
2020/12/22 07:05:39;;;;;;;0.63;0.30;;;11.80;99.90;;;;;;5132108;27;20713;-82
2020/12/22 07:08:08;;;;;;;0.67;0.40;;;11.80;99.90;;;;;;5133548;27;20700;-82
2020/12/22 07:10:41;;;;;;;1.37;0.40;;;11.80;99.90;;;;;;5132995;27;20653;-84
2020/12/22 07:13:11;;;;;;;0.40;0.40;;;11.80;99.90;;;;;;5137835;27;20674;-83
2020/12/22 07:15:44;;;;;;;2.10;0.40;;;11.80;99.90;;;;;;5137322;27;20630;-84
2020/12/22 07:18:12;;;;;;;0.70;0.40;;;11.80;99.90;;;;;;5133553;27;20619;-85
2020/12/22 07:20:43;;;;;;;0.50;0.40;;;11.80;99.90;;;;;;5133697;27;21415;-85
2020/12/22 07:23:10;;;;;;;1.60;0.80;;;11.90;99.90;;;;;;5133723;27;20632;-85
2020/12/22 07:25:39;;;;;;;0.50;0.50;;;12.00;99.90;;;;;;5119569;27;21188;-85
2020/12/22 07:28:06;;;;;;;1.60;0.60;;;12.10;99.90;;;;;;5125253;27;20634;-85
2020/12/22 07:30:33;;;;;;;0.57;0.50;;;12.10;99.90;;;;;;5133660;27;20693;-86
2020/12/22 07:33:00;;;;;;;0.40;0.40;;;12.10;99.90;;;;;;5133943;27;21178;-85
2020/12/22 07:35:29;;;;;;;0.50;0.40;;;12.10;99.90;;;;;;5132280;27;21171;-85
2020/12/22 07:38:02;;;;;;;0.40;0.30;;;12.10;99.90;;;;;;5132661;27;20614;-87
2020/12/22 07:40:29;;;;;;;0.57;0.50;;;12.10;99.90;;;;;;5133476;27;20618;-87
2020/12/22 07:43:04;;;;;;;0.50;0.40;;;12.10;99.90;;;;;;5133811;27;20615;-87
2020/12/22 07:45:30;;;;;;;0.50;0.50;;;12.10;99.90;;;;;;5133206;27;20647;-87
2020/12/22 07:47:57;;;;;;;0.30;0.30;;;12.20;99.90;;;;;;5133520;27;21571;-87
2020/12/22 07:50:23;;;;;;;0.30;0.30;;;12.30;99.90;;;;;;5132649;27;20623;-87
2020/12/22 07:52:56;;;;;;;0.40;0.40;;;12.20;99.90;;;;;;5128069;27;20987;-86
2020/12/22 07:55:23;;;;;;;0.60;0.53;;;12.30;99.90;;;;;;5131590;27;20721;-87
2020/12/22 07:57:50;;;;;;;0.40;0.40;;;12.40;99.90;;;;;;5133289;27;20611;-88
2020/12/22 08:00:17;;;;;;;0.80;0.30;;;12.40;99.90;;;;;;5132628;27;20651;-87
2020/12/22 08:02:43;;;;;;;0.50;0.33;;;12.40;99.90;;;;;;5133198;27;20621;-87
2020/12/22 08:05:10;;;;;;;0.40;0.30;;;12.40;99.90;;;;;;5131962;27;20644;-87
2020/12/22 08:07:39;;;;;;;0.90;0.40;;;12.50;99.90;;;;;;5134008;27;20679;-87
2020/12/22 08:10:09;;;;;;;0.80;0.70;;;12.40;99.90;;;;;;5132180;27;20599;-86
2020/12/22 08:12:36;;;;;;;0.57;0.43;;;12.30;99.90;;;;;;5132681;27;21194;-87
2020/12/22 08:15:04;;;;;;;0.40;0.30;;;12.30;99.90;;;;;;5131538;27;20667;-87
2020/12/22 08:17:36;;;;;;;0.60;0.50;;;12.40;99.90;;;;;;5117027;27;20612;-87
2020/12/22 08:20:03;;;;;;;0.40;0.40;;;12.40;99.90;;;;;;5132592;27;20660;-87
2020/12/22 08:22:30;;;;;;;0.40;0.40;;;12.40;99.90;;;;;;5131818;27;20659;-87
2020/12/22 08:24:59;;;;;;;0.50;0.40;;;12.40;99.90;;;;;;5131877;27;20635;-86
2020/12/22 08:27:26;;;;;;;0.40;0.30;;;12.60;99.90;;;;;;5132319;27;21023;-86
2020/12/22 08:29:52;;;;;;;1.50;0.40;;;12.50;99.90;;;;;;5130722;27;20612;-86
2020/12/22 08:32:24;;;;;;;0.70;0.50;;;12.50;99.90;;;;;;5132647;27;20627;-86
2020/12/22 08:34:53;;;;;;;0.50;0.50;;;12.40;99.90;;;;;;5121453;27;20619;-87
2020/12/22 08:37:25;;;;;;;1.00;0.73;;;12.50;99.90;;;;;;5132446;27;20651;-87
2020/12/22 08:39:52;;;;;;;0.50;0.50;;;12.50;99.90;;;;;;5131390;27;20619;-86
2020/12/22 08:42:20;;;;;;;2.30;0.40;;;12.50;99.90;;;;;;5130189;27;21257;-85
2020/12/22 08:44:50;;;;;;;1.60;0.63;;;12.50;99.90;;;;;;5130992;27;20648;-86
2020/12/22 08:47:18;;;;;;;0.90;0.90;;;12.50;99.90;;;;;;5130492;27;20615;-86
2020/12/22 08:49:45;;;;;;;1.50;0.50;;;12.40;99.90;;;;;;5123408;27;20726;-88
2020/12/22 08:52:15;;;;;;;0.50;0.33;;;12.40;99.90;;;;;;5132329;27;20615;-86
2020/12/22 08:54:42;;;;;;;1.40;1.00;;;12.40;99.90;;;;;;5130791;27;20619;-87
2020/12/22 08:57:13;;;;;;;0.70;0.67;;;12.50;99.90;;;;;;5131387;27;20622;-86
2020/12/22 08:59:40;;;;;;;0.60;0.57;;;12.50;99.90;;;;;;5131356;27;20624;-87
2020/12/22 09:02:07;;;;;;;1.60;0.60;;;12.70;99.90;;;;;;5130854;27;20663;-86
2020/12/22 09:04:33;;;;;;;1.07;0.83;;;12.70;99.90;;;;;;5130955;27;20639;-86
2020/12/22 09:07:00;;;;;;;1.00;0.70;;;12.70;99.90;;;;;;5119734;27;20644;-87
2020/12/22 09:09:30;;;;;;;1.20;0.50;;;12.70;99.90;;;;;;5108047;28;20659;-87
2020/12/22 09:12:04;;;;;;;0.97;0.60;;;12.60;99.90;;;;;;5106019;28;20730;-86
2020/12/22 09:14:41;;;;;;;0.40;0.40;;;12.60;99.90;;;;;;5091586;28;20620;-87
2020/12/22 09:17:08;;;;;;;1.33;0.63;;;12.50;99.90;;;;;;5091265;28;20682;-87
2020/12/22 09:19:43;;;;;;;0.93;0.60;;;12.50;99.90;;;;;;5099525;28;21266;-86
2020/12/22 09:22:10;;;;;;;0.97;0.70;;;12.50;99.90;;;;;;5090757;28;20655;-87
2020/12/22 09:24:37;;;;;;;0.90;0.67;;;12.40;99.90;;;;;;5106752;28;21015;-86
2020/12/22 09:27:06;;;;;;;1.83;0.60;;;12.40;99.90;;;;;;5095850;28;20620;-86
2020/12/22 09:29:35;;;;;;;0.60;0.60;;;12.30;99.90;;;;;;5106752;28;20630;-87
2020/12/22 09:32:01;;;;;;;0.40;0.40;;;12.40;99.90;;;;;;5110617;28;20624;-88
2020/12/22 09:34:30;;;;;;;0.53;0.50;;;12.40;99.90;;;;;;5107246;27;22239;-88
2020/12/22 09:36:58;;;;;;;0.60;0.37;;;12.40;99.90;;;;;;5108305;28;20625;-87
2020/12/22 09:39:26;;;;;;;0.67;0.60;;;12.30;99.90;;;;;;5098996;28;20682;-87
2020/12/22 09:41:53;;;;;;;1.23;0.30;;;12.40;99.90;;;;;;5104894;27;21298;-86
2020/12/22 09:44:20;;;;;;;0.53;0.50;;;12.30;99.90;;;;;;5094499;27;20637;-86
2020/12/22 09:46:48;;;;;;;0.83;0.57;;;12.10;99.90;;;;;;5109425;28;20690;-86
2020/12/22 09:49:14;;;;;;;1.90;0.60;;;12.20;99.90;;;;;;5107917;28;20619;-87
2020/12/22 09:51:41;;;;;;;0.53;0.50;;;12.10;99.90;;;;;;5100722;28;20663;-87
2020/12/22 09:54:07;;;;;;;0.50;0.40;;;12.20;99.90;;;;;;5105204;28;21383;-87
2020/12/22 09:56:34;;;;;;;0.50;0.50;;;12.20;99.90;;;;;;5113015;28;20652;-87
2020/12/22 09:59:01;;;;;;;1.33;0.57;;;12.20;99.90;;;;;;5107185;27;21208;-86
2020/12/22 10:01:28;;;;;;;0.50;0.50;;;12.20;99.90;;;;;;5095767;28;20695;-84
2020/12/22 10:03:54;;;;;;;0.53;0.50;;;12.20;99.90;;;;;;5102352;28;21023;-85
2020/12/22 10:06:23;;;;;;;1.37;0.90;;;12.30;99.90;;;;;;5108613;28;21225;-85
2020/12/22 10:08:50;;;;;;;0.90;0.50;;;12.30;99.90;;;;;;5105417;28;20625;-85
2020/12/22 10:11:17;;;;;;;0.43;0.43;;;12.40;99.90;;;;;;5089237;28;20679;-84
2020/12/22 10:13:44;;;;;;;0.70;0.60;;;12.40;99.90;;;;;;5089973;28;20614;-85
2020/12/22 10:16:13;;;;;;;0.60;0.40;;;12.40;99.90;;;;;;5102471;28;20649;-85
2020/12/22 10:18:39;;;;;;;1.43;0.30;;;12.40;99.90;;;;;;5089632;28;20650;-85
2020/12/22 10:21:07;;;;;;;0.53;0.40;;;12.40;99.90;;;;;;5107754;28;20656;-85
2020/12/22 10:23:35;;;;;;;0.63;0.60;;;12.40;99.90;;;;;;5111757;28;20624;-85
2020/12/22 10:26:05;;;;;;;0.57;0.57;;;12.40;99.90;;;;;;5111389;28;20626;-85
2020/12/22 10:28:33;;;;;;;1.37;0.60;;;12.50;99.90;;;;;;5102160;28;20635;-85
2020/12/22 10:31:00;;;;;;;0.60;0.60;;;12.40;99.90;;;;;;5113885;28;21128;-85
2020/12/22 10:33:27;;;;;;;1.33;0.60;;;12.50;99.90;;;;;;5111443;28;20624;-85
2020/12/22 10:35:54;;;;;;;0.30;0.30;;;12.60;99.90;;;;;;5098520;28;20613;-85
2020/12/22 10:38:21;;;;;;;0.53;0.53;;;12.60;99.90;;;;;;5111941;28;20623;-85
2020/12/22 10:40:48;;;;;;;0.90;0.70;;;12.60;99.90;;;;;;5096173;28;20627;-85
2020/12/22 10:43:15;;;;;;;1.33;0.60;;;12.80;99.90;;;;;;5110214;28;20626;-85
2020/12/22 10:45:41;;;;;;;0.50;0.43;;;12.80;99.90;;;;;;5111894;28;20627;-85
2020/12/22 10:48:09;;;;;;;0.87;0.53;;;12.90;99.90;;;;;;5106822;28;20971;-85
2020/12/22 10:50:36;;;;;;;0.50;0.50;;;12.80;99.90;;;;;;5112679;28;20958;-85
2020/12/22 10:53:03;;;;;;;0.40;0.40;;;12.90;99.90;;;;;;5102004;28;20629;-85
2020/12/22 10:55:30;;;;;;;2.80;0.50;;;12.80;99.90;;;;;;5095468;28;20668;-85
2020/12/22 10:57:56;;;;;;;0.50;0.40;;;12.80;99.90;;;;;;5097729;28;20625;-84
2020/12/22 11:00:23;;;;;;;0.60;0.50;;;12.90;99.90;;;;;;5099629;28;20656;-86
2020/12/22 11:02:53;;;;;;;0.60;0.40;;;13.20;99.90;;;;;;5105517;28;20747;-85
2020/12/22 11:06:04;;;;;;;1.58;0.55;;;13.20;99.90;;;;;;5102660;28;20790;-85
2020/12/22 11:08:07;;;;;;;0.50;0.40;;;13.20;99.90;;;;;;5111692;28;20278;-85
2020/12/22 11:10:34;;;;;;;0.83;0.53;;;13.30;99.90;;;;;;5111286;28;20616;-86
2020/12/22 11:13:00;;;;;;;0.50;0.47;;;13.20;99.90;;;;;;5112665;28;21157;-85
2020/12/22 11:15:27;;;;;;;1.43;0.50;;;13.30;99.90;;;;;;5108324;28;20733;-85
2020/12/22 11:17:53;;;;;;;1.10;0.60;;;13.40;99.90;;;;;;5109104;28;20661;-85
2020/12/22 11:20:20;;;;;;;0.70;0.50;;;13.20;99.90;;;;;;5093571;28;20610;-85
2020/12/22 11:22:47;;;;;;;0.40;0.37;;;13.10;99.90;;;;;;5093929;28;21236;-85
2020/12/22 11:25:14;;;;;;;1.60;0.63;;;13.30;99.90;;;;;;5110405;28;20624;-86
2020/12/22 11:27:41;;;;;;;4.20;0.63;;;13.20;99.90;;;;;;5111321;28;20627;-86
2020/12/22 11:30:07;;;;;;;0.57;0.53;;;13.30;99.90;;;;;;5101862;28;20676;-85
2020/12/22 11:32:34;;;;;;;0.63;0.63;;;13.30;99.90;;;;;;5094789;28;20660;-85
2020/12/22 11:35:01;;;;;;;0.90;0.80;;;13.40;99.90;;;;;;5110420;28;20679;-85
2020/12/22 11:37:27;;;;;;;0.67;0.67;;;13.20;99.90;;;;;;5092956;28;20695;-85
2020/12/22 11:39:54;;;;;;;0.40;0.40;;;13.30;99.90;;;;;;5103800;28;20689;-85
2020/12/22 11:42:21;;;;;;;2.80;1.47;;;13.20;99.90;;;;;;5112726;28;20765;-85
2020/12/22 11:44:48;;;;;;;1.27;0.50;;;13.30;99.90;;;;;;5105729;28;20681;-85
2020/12/22 11:47:15;;;;;;;1.03;0.60;;;13.30;99.90;;;;;;5096051;28;20641;-85
2020/12/22 11:49:42;;;;;;;1.13;0.80;;;13.30;99.90;;;;;;5108951;28;20632;-85
2020/12/22 11:52:09;;;;;;;0.47;0.47;;;13.30;99.90;;;;;;5112136;28;20657;-85
2020/12/22 11:54:35;;;;;;;0.87;0.70;;;13.30;99.90;;;;;;5111369;28;20654;-85
2020/12/22 11:57:02;;;;;;;0.70;0.47;;;13.40;99.90;;;;;;5112591;28;20628;-85
2020/12/22 11:59:29;;;;;;;0.53;0.50;;;13.40;99.90;;;;;;5106714;28;21057;-84
2020/12/22 12:01:55;;;;;;;0.80;0.80;;;13.40;99.90;;;;;;5112373;28;20681;-84
2020/12/22 12:04:22;;;;;;;0.77;0.77;;;13.50;99.90;;;;;;5108887;28;20672;-83
2020/12/22 12:07:32;;;;;;;0.70;0.67;;;13.50;99.90;;;;;;5097172;28;20650;-83
2020/12/22 12:10:01;;;;;;;0.80;0.70;;;13.50;99.90;;;;;;5105224;28;20784;-84
2020/12/22 12:12:28;;;;;;;0.83;0.70;;;13.60;99.90;;;;;;5109486;27;20972;-85
2020/12/22 12:14:56;;;;;;;1.50;0.60;;;13.60;99.90;;;;;;5107862;28;20618;-84
2020/12/22 12:17:24;;;;;;;0.70;0.57;;;13.50;99.90;;;;;;5105623;28;20622;-86
2020/12/22 12:19:50;;;;;;;0.60;0.60;;;13.70;99.90;;;;;;5106392;28;20627;-85
2020/12/22 12:22:17;;;;;;;0.83;0.60;;;13.70;99.90;;;;;;5109367;28;20654;-85
2020/12/22 12:24:43;;;;;;;0.50;0.43;;;13.60;99.90;;;;;;5101866;28;20653;-85
2020/12/22 12:27:10;;;;;;;0.50;0.40;;;13.70;99.90;;;;;;5111074;28;20644;-85
2020/12/22 12:29:36;;;;;;;0.57;0.57;;;13.80;99.90;;;;;;5106949;28;20626;-85
2020/12/22 12:32:04;;;;;;;0.70;0.60;;;13.80;99.90;;;;;;5111903;28;20666;-85
2020/12/22 12:34:30;;;;;;;1.03;0.60;;;14.00;99.90;;;;;;5099513;28;20650;-85
2020/12/22 12:36:57;;;;;;;0.50;0.50;;;14.10;99.90;;;;;;5109238;28;20627;-84
2020/12/22 12:39:23;;;;;;;0.77;0.63;;;14.00;99.90;;;;;;5105614;28;20724;-85
2020/12/22 12:41:50;;;;;;;1.50;0.53;;;14.00;99.90;;;;;;5109790;28;20647;-85
2020/12/22 12:44:17;;;;;;;0.67;0.50;;;13.70;99.90;;;;;;5099120;28;20623;-84
2020/12/22 12:46:43;;;;;;;0.57;0.57;;;13.60;99.90;;;;;;5110186;28;20624;-86
2020/12/22 12:49:13;;;;;;;0.40;0.30;;;13.70;99.90;;;;;;5109016;28;20642;-85
2020/12/22 12:51:43;;;;;;;0.40;0.33;;;13.60;99.90;;;;;;5111357;28;20649;-85
2020/12/22 12:54:10;;;;;;;0.60;0.47;;;13.60;99.90;;;;;;5097928;28;20668;-85
2020/12/22 12:56:36;;;;;;;0.40;0.40;;;13.50;99.90;;;;;;5103323;28;21130;-85